createdAt,value
2019-03-23T00:02:23.473Z,12.53
2019-03-23T00:04:52.696Z,12.13
2019-03-23T00:07:21.980Z,12.80
2019-03-23T00:09:51.665Z,14.20
2019-03-23T00:12:30.354Z,12.60
2019-03-23T00:14:59.880Z,12.00
2019-03-23T00:17:32.195Z,11.33
2019-03-23T00:20:01.770Z,11.77
2019-03-23T00:22:40.073Z,11.13
2019-03-23T00:25:09.323Z,11.57
2019-03-23T00:27:38.569Z,13.13
2019-03-23T00:30:09.222Z,12.53
2019-03-23T00:32:50.015Z,10.80
2019-03-23T00:35:19.029Z,12.77
2019-03-23T00:37:48.325Z,12.93
2019-03-23T00:40:17.645Z,12.03
2019-03-23T00:42:58.141Z,12.50
2019-03-23T00:45:27.475Z,13.90
2019-03-23T00:47:58.208Z,15.70
2019-03-23T00:50:27.782Z,14.10
2019-03-23T00:52:59.396Z,15.13
2019-03-23T00:55:30.437Z,13.73
2019-03-23T00:57:59.764Z,16.53
2019-03-23T01:00:29.082Z,16.20
2019-03-23T01:03:08.566Z,16.50
2019-03-23T01:05:37.784Z,16.60
2019-03-23T01:08:07.046Z,18.03
2019-03-23T01:10:38.350Z,15.33
2019-03-23T01:13:18.145Z,15.43
2019-03-23T01:15:48.211Z,17.50
2019-03-23T01:18:17.581Z,17.07
2019-03-23T01:20:49.930Z,16.10
2019-03-23T01:23:29.390Z,16.83
2019-03-23T01:26:03.431Z,15.27
2019-03-23T01:28:32.757Z,17.00
2019-03-23T01:31:01.988Z,14.13
2019-03-23T01:33:40.467Z,20.63
2019-03-23T01:36:09.779Z,17.13
2019-03-23T01:38:39.049Z,16.90
2019-03-23T01:41:09.412Z,17.43
2019-03-23T01:43:47.781Z,15.87
2019-03-23T01:46:17.041Z,16.30
2019-03-23T01:48:46.292Z,16.77
2019-03-23T01:51:15.550Z,15.53
2019-03-23T01:53:55.110Z,18.70
2019-03-23T01:56:24.374Z,19.47
2019-03-23T01:58:53.983Z,16.17
2019-03-23T02:01:23.209Z,15.03
2019-03-23T02:04:06.798Z,16.40
2019-03-23T02:06:37.686Z,16.43
2019-03-23T02:09:07.899Z,17.47
2019-03-23T02:11:37.224Z,19.70
2019-03-23T02:14:15.835Z,14.87
2019-03-23T02:16:45.088Z,18.80
2019-03-23T02:19:15.126Z,16.13
2019-03-23T02:21:53.525Z,15.27
2019-03-23T02:24:27.361Z,16.73
2019-03-23T02:26:56.889Z,17.43
2019-03-23T02:29:26.268Z,13.33
2019-03-23T02:32:06.753Z,15.27
2019-03-23T02:34:36.025Z,12.47
2019-03-23T02:37:07.444Z,15.97
2019-03-23T02:39:39.752Z,16.57
2019-03-23T02:42:18.160Z,12.80
2019-03-23T02:44:50.540Z,15.23
2019-03-23T02:47:20.305Z,16.03
2019-03-23T02:49:51.974Z,17.03
2019-03-23T02:52:30.069Z,14.37
2019-03-23T02:55:02.117Z,13.37
2019-03-23T02:57:31.361Z,14.70
2019-03-23T03:00:00.554Z,13.83
2019-03-23T03:02:38.881Z,11.70
2019-03-23T03:05:08.962Z,16.73
2019-03-23T03:07:42.384Z,14.70
2019-03-23T03:10:09.443Z,13.77
2019-03-23T03:12:38.712Z,12.80
2019-03-23T03:15:08.311Z,12.80
2019-03-23T03:17:37.534Z,15.67
2019-03-23T03:20:08.036Z,13.77
2019-03-23T03:22:47.385Z,13.60
2019-03-23T03:25:16.569Z,12.67
2019-03-23T03:27:46.189Z,14.10
2019-03-23T03:30:15.440Z,14.70
2019-03-23T03:32:53.935Z,13.67
2019-03-23T03:35:23.488Z,14.37
2019-03-23T03:37:57.007Z,11.47
2019-03-23T03:40:23.886Z,13.57
2019-03-23T03:43:02.617Z,12.63
2019-03-23T03:45:31.838Z,14.00
2019-03-23T03:48:01.423Z,17.37
2019-03-23T03:50:30.875Z,13.77
2019-03-23T03:53:10.028Z,14.53
2019-03-23T03:55:39.233Z,14.23
2019-03-23T03:58:08.429Z,13.87
2019-03-23T04:00:37.644Z,14.87
2019-03-23T04:03:16.186Z,14.10
2019-03-23T04:05:45.689Z,15.90
2019-03-23T04:08:14.898Z,16.57
2019-03-23T04:10:47.158Z,16.23
2019-03-23T04:13:25.616Z,16.07
2019-03-23T04:15:54.800Z,16.50
2019-03-23T04:18:23.986Z,17.13
2019-03-23T04:20:53.199Z,16.07
2019-03-23T04:23:31.759Z,19.77
2019-03-23T04:26:01.044Z,17.77
2019-03-23T04:28:30.238Z,21.50
2019-03-23T04:30:59.483Z,25.00
2019-03-23T04:33:37.888Z,20.40
2019-03-23T04:36:07.085Z,18.70
2019-03-23T04:38:38.970Z,21.20
2019-03-23T04:41:08.168Z,19.37
2019-03-23T04:43:46.854Z,18.47
2019-03-23T04:46:16.109Z,21.77
2019-03-23T04:48:45.569Z,20.63
2019-03-23T04:51:15.017Z,21.40
2019-03-23T04:53:53.565Z,21.43
2019-03-23T04:56:23.115Z,23.90
2019-03-23T04:58:52.322Z,21.30
2019-03-23T05:01:22.138Z,24.60
2019-03-23T05:04:00.696Z,19.37
2019-03-23T05:06:29.886Z,21.97
2019-03-23T05:09:01.567Z,18.07
2019-03-23T05:11:30.837Z,20.07
2019-03-23T05:14:09.309Z,18.10
2019-03-23T05:16:38.840Z,19.90
2019-03-23T05:19:08.065Z,21.43
2019-03-23T05:21:37.922Z,20.53
2019-03-23T05:24:16.264Z,21.33
2019-03-23T05:26:45.476Z,16.63
2019-03-23T05:29:14.728Z,17.77
2019-03-23T05:31:46.334Z,16.90
2019-03-23T05:34:24.722Z,13.97
2019-03-23T05:36:54.201Z,17.57
2019-03-23T05:39:23.683Z,16.10
2019-03-23T05:41:52.943Z,19.03
2019-03-23T05:44:34.518Z,14.73
2019-03-23T05:47:04.022Z,19.57
2019-03-23T05:49:33.242Z,16.10
2019-03-23T05:52:02.996Z,14.03
2019-03-23T05:54:42.086Z,14.13
2019-03-23T05:57:14.183Z,18.50
2019-03-23T05:59:46.449Z,16.37
2019-03-23T06:02:15.647Z,15.73
2019-03-23T06:07:42.076Z,14.87
2019-03-23T06:10:11.766Z,13.17
2019-03-23T06:12:41.130Z,15.53
2019-03-23T06:15:19.629Z,14.30
2019-03-23T06:17:48.892Z,14.07
2019-03-23T06:20:18.150Z,16.10
2019-03-23T06:22:47.310Z,11.83
2019-03-23T06:25:25.983Z,14.80
2019-03-23T06:27:56.291Z,16.03
2019-03-23T06:30:27.633Z,11.93
2019-03-23T06:32:59.316Z,11.43
2019-03-23T06:35:40.120Z,11.77
2019-03-23T06:38:09.649Z,16.77
2019-03-23T06:40:42.030Z,42.13
2019-03-23T06:43:16.166Z,55.03
2019-03-23T06:45:57.149Z,12.80
2019-03-23T06:48:30.736Z,12.30
2019-03-23T06:50:59.968Z,11.00
2019-03-23T06:53:31.290Z,14.50
2019-03-23T06:56:10.340Z,12.87
2019-03-23T06:58:40.445Z,12.33
2019-03-23T07:01:09.761Z,12.53
2019-03-23T07:03:40.722Z,13.43
2019-03-23T07:06:20.380Z,13.77
2019-03-23T07:08:49.695Z,15.77
2019-03-23T07:11:19.094Z,25.37
2019-03-23T07:13:54.920Z,55.13
2019-03-23T07:16:36.266Z,71.73
2019-03-23T07:19:06.929Z,114.60
2019-03-23T07:21:36.227Z,43.47
2019-03-23T07:24:07.639Z,30.27
2019-03-23T07:26:46.808Z,20.47
2019-03-23T07:29:16.265Z,26.57
2019-03-23T07:31:45.625Z,53.50
2019-03-23T07:34:15.511Z,61.87
2019-03-23T07:36:54.033Z,26.87
2019-03-23T07:39:28.238Z,20.80
2019-03-23T07:41:54.814Z,18.93
2019-03-23T07:44:24.195Z,17.43
2019-03-23T07:47:09.763Z,19.83
2019-03-23T07:49:39.224Z,17.83
2019-03-23T07:52:08.474Z,20.07
2019-03-23T07:54:37.766Z,16.00
2019-03-23T07:57:16.219Z,15.97
2019-03-23T07:59:45.479Z,18.43
2019-03-23T08:02:14.848Z,16.57
2019-03-23T08:04:45.272Z,16.87
2019-03-23T08:07:50.473Z,14.50
2019-03-23T08:10:28.184Z,16.93
2019-03-23T08:13:05.199Z,29.17
2019-03-23T08:18:44.545Z,18.30
2019-03-23T08:21:13.893Z,18.63
2019-03-23T08:23:49.870Z,20.73
2019-03-23T08:27:33.061Z,19.20
2019-03-23T08:45:34.558Z,33.23
2019-03-23T08:48:15.941Z,25.25
2019-03-23T08:50:45.292Z,19.55
2019-03-23T08:53:15.667Z,20.25
2019-03-23T08:58:43.710Z,26.85
2019-03-23T11:22:26.269Z,31.70
2019-03-23T11:24:55.863Z,30.37
2019-03-23T11:27:34.488Z,29.52
2019-03-23T11:30:04.016Z,30.92
2019-03-23T11:32:36.741Z,40.75
2019-03-23T11:35:12.541Z,31.02
2019-03-23T11:40:30.995Z,31.02
2019-03-23T11:43:02.462Z,31.65
2019-03-23T11:45:31.836Z,32.15
2019-03-23T11:48:03.334Z,31.75
2019-03-23T11:50:34.809Z,29.55
2019-03-23T12:21:22.939Z,35.58
2019-03-23T12:24:03.268Z,31.90
2019-03-23T13:18:37.265Z,33.67
2019-03-23T13:21:12.464Z,32.08
2019-03-23T13:23:42.107Z,29.60
2019-03-23T13:26:14.114Z,32.60
2019-03-23T13:28:52.651Z,31.52
2019-03-23T13:31:32.646Z,31.57
2019-03-23T13:50:12.927Z,31.83
2019-03-23T13:53:31.776Z,30.80
2019-03-23T13:56:37.815Z,35.00
2019-03-23T13:59:29.952Z,33.17
2019-03-23T14:02:02.338Z,31.63
2019-03-23T14:04:39.937Z,31.90
2019-03-23T14:07:30.952Z,32.60
2019-03-23T14:09:44.792Z,32.07
2019-03-23T14:12:31.684Z,36.10
2019-03-23T14:15:03.235Z,37.27
2019-03-23T14:17:44.665Z,35.83
2019-03-23T14:20:18.715Z,35.50
2019-03-23T14:22:50.269Z,34.23
2019-03-23T14:25:21.327Z,33.63
2019-03-23T14:28:02.877Z,33.83
2019-03-23T14:30:32.131Z,37.63
2019-03-23T14:33:01.361Z,38.73
2019-03-23T14:35:31.912Z,39.23
2019-03-23T14:38:10.202Z,35.90
2019-03-23T14:40:41.318Z,39.63
2019-03-23T14:43:10.481Z,36.77
2019-03-23T14:45:39.722Z,37.57
2019-03-23T14:48:21.553Z,37.17
2019-03-23T14:50:53.233Z,33.07
2019-03-23T14:53:25.561Z,35.47
2019-03-23T14:55:55.069Z,27.13
2019-03-23T15:01:29.533Z,35.70
2019-03-23T15:04:17.867Z,33.83
2019-03-23T15:06:55.355Z,30.47
2019-03-23T15:09:24.808Z,32.13
2019-03-23T15:11:57.023Z,34.40
2019-03-23T15:14:28.972Z,31.20
2019-03-23T15:16:59.549Z,30.37
2019-03-23T15:19:51.762Z,35.77
2019-03-23T15:22:23.462Z,31.03
2019-03-23T15:25:14.166Z,29.83
2019-03-23T15:27:45.859Z,30.70
2019-03-23T15:30:44.310Z,32.17
2019-03-23T15:33:16.988Z,29.07
2019-03-23T15:35:48.843Z,33.90
2019-03-23T15:38:35.185Z,33.37
2019-03-23T15:41:04.631Z,29.47
2019-03-23T15:43:34.914Z,32.27
2019-03-23T15:46:06.651Z,28.77
2019-03-23T15:51:21.549Z,36.60
2019-03-23T15:53:53.210Z,46.23
2019-03-23T15:56:30.781Z,34.07
2019-03-23T15:59:10.060Z,32.80
2019-03-23T16:01:39.269Z,29.93
2019-03-23T16:04:08.767Z,31.17
2019-03-23T16:07:17.941Z,31.30
2019-03-23T16:12:34.804Z,31.53
2019-03-23T16:15:03.802Z,32.23
2019-03-23T16:17:33.074Z,30.67
2019-03-23T16:22:54.974Z,25.70
2019-03-23T16:25:24.332Z,24.70
2019-03-23T16:27:53.530Z,31.90
2019-03-23T16:30:39.723Z,28.80
2019-03-23T16:33:09.084Z,33.27
2019-03-23T16:35:38.321Z,28.90
2019-03-23T16:38:11.018Z,30.80
2019-03-23T16:53:08.755Z,28.40
2019-03-23T17:01:50.137Z,20.53
2019-03-23T17:04:23.855Z,26.70
2019-03-23T17:06:55.405Z,26.87
2019-03-23T17:09:35.634Z,20.97
2019-03-23T17:12:07.472Z,27.13
2019-03-23T17:14:38.028Z,23.67
2019-03-23T17:17:29.588Z,24.27
2019-03-23T17:20:09.942Z,25.40
2019-03-23T17:22:40.410Z,24.33
2019-03-23T17:25:09.759Z,24.10
2019-03-23T17:27:39.101Z,25.13
2019-03-23T17:30:17.321Z,22.53
2019-03-23T17:32:46.619Z,20.63
2019-03-23T17:35:16.192Z,23.43
2019-03-23T17:37:45.718Z,21.20
2019-03-23T17:40:24.515Z,26.33
2019-03-23T17:42:54.324Z,22.80
2019-03-23T17:45:28.537Z,22.27
2019-03-23T17:48:02.588Z,21.17
2019-03-23T17:50:41.085Z,19.93
2019-03-23T17:53:10.771Z,21.60
2019-03-23T17:55:40.776Z,24.87
2019-03-23T17:58:10.029Z,27.33
2019-03-23T18:00:48.354Z,25.10
2019-03-23T18:03:17.647Z,25.10
2019-03-23T18:05:47.264Z,26.70
2019-03-23T18:08:16.562Z,23.13
2019-03-23T18:10:57.571Z,24.00
2019-03-23T18:13:28.526Z,28.00
2019-03-23T18:15:59.677Z,31.17
2019-03-23T18:18:32.447Z,32.03
2019-03-23T18:21:11.088Z,23.77
2019-03-23T18:23:53.489Z,26.83
2019-03-23T18:26:23.022Z,26.20
2019-03-23T18:28:52.556Z,25.37
2019-03-23T18:31:30.970Z,24.93
2019-03-23T18:34:03.527Z,30.93
2019-03-23T18:36:32.843Z,31.50
2019-03-23T18:39:02.027Z,35.27
2019-03-23T18:41:40.402Z,26.70
2019-03-23T18:44:16.163Z,32.97
2019-03-23T18:46:40.922Z,28.87
2019-03-23T18:49:10.435Z,30.40
2019-03-23T18:51:48.574Z,29.57
2019-03-23T18:54:17.946Z,27.00
2019-03-23T18:56:47.172Z,28.83
2019-03-23T18:59:16.379Z,34.07
2019-03-23T19:01:55.283Z,28.70
2019-03-23T19:04:24.550Z,29.67
2019-03-23T19:06:53.781Z,33.90
2019-03-23T19:09:23.327Z,32.60
2019-03-23T19:12:08.181Z,32.60
2019-03-23T19:14:37.462Z,31.47
2019-03-23T19:17:06.780Z,31.03
2019-03-23T19:19:36.114Z,35.77
2019-03-23T19:22:16.817Z,35.50
2019-03-23T19:24:46.069Z,31.07
2019-03-23T19:27:20.811Z,26.67
2019-03-23T19:29:51.703Z,30.03
2019-03-23T19:32:30.406Z,29.10
2019-03-23T19:35:02.095Z,25.50
2019-03-23T19:37:31.869Z,26.47
2019-03-23T19:40:01.608Z,32.73
2019-03-23T19:42:30.919Z,33.43
2019-03-23T19:45:03.073Z,29.93
2019-03-23T19:47:32.419Z,31.50
2019-03-23T19:50:01.895Z,32.60
2019-03-23T19:52:40.449Z,27.27
2019-03-23T19:55:09.677Z,29.73
2019-03-23T19:57:39.489Z,31.07
2019-03-23T20:00:09.417Z,30.70
2019-03-23T20:02:48.020Z,38.20
2019-03-23T20:05:17.490Z,29.33
2019-03-23T20:07:47.167Z,34.03
2019-03-23T20:10:17.084Z,30.97
2019-03-23T20:12:55.511Z,29.47
2019-03-23T20:15:25.041Z,32.20
2019-03-23T20:17:54.551Z,28.47
2019-03-23T20:20:24.116Z,28.00
2019-03-23T20:23:02.438Z,30.43
2019-03-23T20:25:31.877Z,30.83
2019-03-23T20:28:01.362Z,35.10
2019-03-23T20:30:30.864Z,30.17
2019-03-23T20:33:19.059Z,31.33
2019-03-23T20:35:40.709Z,33.97
2019-03-23T20:38:09.945Z,37.37
2019-03-23T20:40:39.419Z,34.27
2019-03-23T20:43:17.631Z,36.43
2019-03-23T20:45:46.888Z,34.47
2019-03-23T20:48:16.810Z,36.33
2019-03-23T20:50:46.268Z,36.63
2019-03-23T20:53:24.690Z,30.73
2019-03-23T20:55:53.935Z,34.33
2019-03-23T20:58:23.154Z,31.70
2019-03-23T21:00:52.901Z,27.47
2019-03-23T21:03:38.141Z,29.90
2019-03-23T21:06:07.836Z,31.83
2019-03-23T21:08:37.658Z,31.97
2019-03-23T21:11:06.994Z,31.90
2019-03-23T21:13:36.676Z,32.83
2019-03-23T21:16:06.226Z,34.50
2019-03-23T21:18:37.727Z,34.00
2019-03-23T21:21:07.261Z,30.43
2019-03-23T21:23:46.320Z,34.67
2019-03-23T21:26:16.152Z,39.50
2019-03-23T21:28:45.926Z,37.03
2019-03-23T21:31:20.714Z,38.83
2019-03-23T21:33:59.308Z,39.17
2019-03-23T21:36:30.939Z,36.67
2019-03-23T21:39:00.523Z,37.77
2019-03-23T21:41:30.274Z,33.07
2019-03-23T21:44:09.055Z,31.50
2019-03-23T21:46:38.271Z,36.13
2019-03-23T21:49:07.770Z,30.93
2019-03-23T21:51:37.225Z,33.20
2019-03-23T21:54:15.882Z,33.17
2019-03-23T21:56:45.290Z,34.33
2019-03-23T21:59:14.499Z,34.60
2019-03-23T22:01:44.581Z,31.70
2019-03-23T22:04:30.982Z,32.30
2019-03-23T22:07:00.678Z,32.30
2019-03-23T22:09:29.956Z,33.40
2019-03-23T22:11:59.271Z,36.03
2019-03-23T22:14:41.992Z,42.70
2019-03-23T22:17:09.426Z,35.73
2019-03-23T22:19:38.924Z,37.50
2019-03-23T22:22:08.406Z,45.83
2019-03-23T22:24:38.837Z,42.60
2019-03-23T22:27:08.295Z,48.37
2019-03-23T22:29:37.549Z,41.80
2019-03-23T22:32:07.204Z,36.83
2019-03-23T22:34:45.720Z,41.27
2019-03-23T22:37:14.988Z,63.37
2019-03-23T22:39:44.327Z,58.27
2019-03-23T22:42:14.820Z,53.33
2019-03-23T22:44:53.472Z,64.53
2019-03-23T22:47:25.743Z,64.03
2019-03-23T22:49:54.984Z,68.07
2019-03-23T22:52:24.282Z,69.70
2019-03-23T22:57:37.939Z,72.80
2019-03-23T23:00:07.652Z,78.47
2019-03-23T23:02:36.982Z,68.47
2019-03-23T23:05:15.862Z,77.53
2019-03-23T23:07:45.691Z,72.73
2019-03-23T23:10:14.983Z,73.63
2019-03-23T23:12:44.393Z,77.60
2019-03-23T23:15:25.996Z,88.47
2019-03-23T23:17:55.249Z,79.07
2019-03-23T23:20:24.512Z,71.60
2019-03-23T23:22:54.017Z,78.97
2019-03-23T23:25:23.398Z,87.67
2019-03-23T23:27:52.794Z,78.77
2019-03-23T23:30:22.339Z,77.43
2019-03-23T23:32:51.814Z,72.67
2019-03-23T23:35:30.719Z,73.97
2019-03-23T23:37:59.963Z,78.00
2019-03-23T23:40:29.520Z,77.27
2019-03-23T23:42:58.928Z,75.27
2019-03-23T23:45:38.531Z,83.87
2019-03-23T23:48:10.640Z,80.20
2019-03-23T23:50:39.831Z,73.57
2019-03-23T23:53:09.160Z,76.97
2019-03-23T23:55:47.824Z,75.13
2019-03-23T23:58:17.597Z,75.37
